Time;durP1;ratioP1;P1;durP2;ratioP2;P2;SDS_P1;SDS_P2;PMS_P1;PMS_P2;Temp;Humidity;BMP_temperature;BMP_pressure;BME280_temperature;BME280_humidity;BME280_pressure;Samples;Min_cycle;Max_cycle;Signal;HPM_P1;HPM_P2
2022/11/02 05:55:57;;;;;;;;;1.25;1.25;;;;;13.12;66.75;102153.25;3047317;22;67787;-80
2022/11/02 05:57:08;;;;;;;;;5.25;2.00;;;;;13.13;66.89;102151.50;3042764;22;47899;-80
2022/11/02 05:58:18;;;;;;;;;3.50;2.25;;;;;13.11;66.91;102143.59;3048009;22;45267;-79
2022/11/02 05:59:28;;;;;;;;;3.75;3.00;;;;;13.12;66.91;102152.38;3059388;22;46130;-81
2022/11/02 06:00:39;;;;;;;;;2.25;1.00;;;;;13.13;66.70;102159.41;3059629;22;44651;-81
2022/11/02 06:01:49;;;;;;;;;4.25;1.00;;;;;13.13;66.71;102162.06;3041999;22;45899;-80
2022/11/02 06:03:00;;;;;;;;;6.50;4.00;;;;;13.13;66.86;102152.38;3047562;22;45305;-81
2022/11/02 06:04:10;;;;;;;;;3.75;2.25;;;;;13.13;67.00;102143.59;3058269;22;45244;-81
2022/11/02 06:05:20;;;;;;;;;3.00;3.00;;;;;13.13;67.07;102148.84;3041495;22;45357;-81
2022/11/02 06:06:31;;;;;;;;;3.25;3.25;;;;;13.12;67.35;102144.47;3046775;22;45510;-81
2022/11/02 06:07:41;;;;;;;;;7.25;3.50;;;;;13.09;67.10;102141.91;3058406;22;44566;-81
2022/11/02 06:08:52;;;;;;;;;7.75;2.00;;;;;13.09;67.54;102136.63;3058652;22;45188;-81
2022/11/02 06:10:02;;;;;;;;;2.25;2.25;;;;;13.09;67.21;102144.56;3058587;22;45331;-81
2022/11/02 06:11:14;;;;;;;;;2.25;2.25;;;;;13.07;67.07;102141.06;3058101;22;47350;-81
2022/11/02 06:12:24;;;;;;;;;1.50;1.50;;;;;13.04;67.52;102140.22;3058637;22;45198;-82
2022/11/02 06:13:34;;;;;;;;;6.50;3.50;;;;;13.05;67.50;102141.97;3058736;22;46438;-81
2022/11/02 06:14:45;;;;;;;;;5.50;3.25;;;;;13.05;67.38;102149.00;3059004;22;45542;-81
2022/11/02 06:16:02;;;;;;;;;3.25;3.00;;;;;13.09;67.25;102144.56;3058702;22;46379;-81
2022/11/02 06:17:12;;;;;;;;;4.00;2.75;;;;;13.05;67.34;102152.53;3058833;22;45147;-82
2022/11/02 06:18:22;;;;;;;;;4.00;3.00;;;;;13.05;67.11;102149.00;3058450;22;45262;-81
2022/11/02 06:19:33;;;;;;;;;4.50;2.25;;;;;13.04;67.47;102150.78;3058864;22;45145;-81
2022/11/02 06:20:43;;;;;;;;;5.00;2.75;;;;;13.03;67.24;102156.97;3058617;22;45144;-81
2022/11/02 06:21:53;;;;;;;;;6.75;3.00;;;;;13.04;67.37;102161.34;3042135;22;45163;-81
2022/11/02 06:23:04;;;;;;;;;7.00;3.75;;;;;13.03;67.21;102158.75;3047062;22;45112;-81
2022/11/02 06:24:14;;;;;;;;;4.50;2.00;;;;;13.02;67.23;102155.22;3058922;22;45199;-81
2022/11/02 06:25:25;;;;;;;;;3.25;3.00;;;;;13.02;67.14;102162.28;3058326;22;45184;-81
2022/11/02 06:26:35;;;;;;;;;3.25;3.00;;;;;13.02;67.29;102167.53;3058837;22;45505;-82
2022/11/02 06:27:55;;;;;;;;;3.00;2.50;;;;;13.01;67.25;102166.66;3058652;22;46533;-81
2022/11/02 06:29:05;;;;;;;;;7.75;4.25;;;;;12.99;67.38;102163.19;3058811;22;45099;-81
2022/11/02 06:30:15;;;;;;;;;2.00;1.75;;;;;12.97;67.35;102166.75;3058719;22;45929;-81
2022/11/02 06:31:26;;;;;;;;;5.25;3.25;;;;;12.94;67.37;102170.34;3058808;22;44645;-82
2022/11/02 06:32:36;;;;;;;;;4.50;4.00;;;;;12.92;67.29;102161.59;3057056;22;45456;-82
2022/11/02 06:33:46;;;;;;;;;6.75;4.00;;;;;12.92;67.32;102166.88;3058337;22;45289;-82
2022/11/02 06:34:57;;;;;;;;;4.25;3.00;;;;;12.89;67.51;102173.06;3057630;22;46074;-82
2022/11/02 06:36:08;;;;;;;;;4.50;2.25;;;;;12.90;67.27;102168.66;3058695;22;45246;-81
2022/11/02 06:37:18;;;;;;;;;6.00;3.00;;;;;12.88;67.54;102170.47;3058250;22;46130;-81
2022/11/02 06:38:28;;;;;;;;;5.75;2.50;;;;;12.88;67.55;102166.06;3058755;22;45290;-81
2022/11/02 06:39:38;;;;;;;;;4.00;3.00;;;;;12.87;67.65;102171.34;3058428;22;46363;-81
2022/11/02 06:41:07;;;;;;;;;3.75;2.50;;;;;12.86;67.35;102177.56;3058342;22;44602;-82
2022/11/02 06:42:17;;;;;;;;;7.00;5.00;;;;;12.86;67.62;102174.91;3058584;22;45357;-81
2022/11/02 06:43:28;;;;;;;;;4.00;3.75;;;;;12.83;67.77;102181.13;3058371;22;45298;-82
2022/11/02 06:44:38;;;;;;;;;7.25;3.00;;;;;12.82;67.89;102177.59;3057785;22;45651;-81
2022/11/02 06:45:49;;;;;;;;;5.25;3.25;;;;;12.82;67.94;102185.53;3059046;22;45191;-81
2022/11/02 06:47:00;;;;;;;;;3.50;2.25;;;;;12.79;67.79;102182.09;3040245;22;47183;-81
2022/11/02 06:48:10;;;;;;;;;4.75;2.00;;;;;12.79;67.97;102182.09;3046351;22;44739;-81
2022/11/02 06:49:21;;;;;;;;;6.75;2.75;;;;;12.79;68.01;102185.56;3058586;22;45277;-81
2022/11/02 06:50:31;;;;;;;;;7.25;4.00;;;;;12.79;67.78;102182.09;3059025;22;45179;-81
2022/11/02 06:51:41;;;;;;;;;7.25;4.50;;;;;12.77;67.81;102179.47;3059190;22;45300;-81
2022/11/02 06:52:52;;;;;;;;;4.00;2.75;;;;;12.80;68.15;102184.69;3059393;22;44558;-81
2022/11/02 06:54:02;;;;;;;;;4.25;3.25;;;;;12.78;67.99;102183.84;3059132;22;45330;-81
2022/11/02 06:55:14;;;;;;;;;8.50;3.75;;;;;12.76;68.11;102190.94;3058696;22;45183;-80
2022/11/02 06:56:24;;;;;;;;;5.00;3.75;;;;;12.77;67.60;102195.28;3041876;22;48091;-81
2022/11/02 06:57:36;;;;;;;;;7.25;5.25;;;;;12.78;67.89;102198.81;3031223;22;45156;-81
2022/11/02 06:58:46;;;;;;;;;2.25;2.25;;;;;12.76;68.05;102196.22;3047567;22;46195;-81
2022/11/02 07:00:02;;;;;;;;;2.75;2.75;;;;;12.76;68.05;102208.53;3059078;22;45311;-81
2022/11/02 07:01:14;;;;;;;;;5.75;3.00;;;;;12.75;68.31;102212.91;3059134;22;45249;-81
2022/11/02 07:02:24;;;;;;;;;5.00;3.00;;;;;12.76;68.09;102208.53;3059159;22;45128;-81
2022/11/02 07:03:35;;;;;;;;;4.50;4.00;;;;;12.76;68.24;102214.66;3042114;22;47018;-81
2022/11/02 07:04:45;;;;;;;;;5.75;4.50;;;;;12.74;68.21;102207.69;3047754;22;45161;-81
2022/11/02 07:05:56;;;;;;;;;7.00;4.50;;;;;12.71;68.33;102203.34;3058438;22;45190;-81
2022/11/02 07:07:07;;;;;;;;;7.00;4.00;;;;;12.73;68.18;102212.09;3058989;22;45154;-81
2022/11/02 07:08:19;;;;;;;;;4.50;3.25;;;;;12.72;68.16;102207.69;3058940;22;45307;-81
2022/11/02 07:09:29;;;;;;;;;8.00;3.75;;;;;12.70;68.04;102205.09;3057881;22;45768;-81
2022/11/02 07:10:39;;;;;;;;;6.50;4.00;;;;;12.73;68.14;102204.16;3041819;22;47865;-81
2022/11/02 07:11:50;;;;;;;;;4.25;3.25;;;;;12.72;68.22;102205.06;3047515;22;45212;-81
2022/11/02 07:13:00;;;;;;;;;9.25;5.00;;;;;12.74;68.02;102205.88;3058896;22;45372;-81
2022/11/02 07:14:11;;;;;;;;;1.50;0.00;;;;;12.74;68.23;102203.25;3059271;22;45145;-81
2022/11/02 07:15:23;;;;;;;;;5.75;3.25;;;;;12.72;68.22;102207.69;3042168;22;48369;-81
2022/11/02 07:16:33;;;;;;;;;5.25;3.50;;;;;12.70;68.20;102209.50;3047647;22;45262;-81
2022/11/02 07:17:43;;;;;;;;;4.50;3.00;;;;;12.71;68.16;102212.13;3058392;22;46128;-81
2022/11/02 07:18:54;;;;;;;;;10.25;7.00;;;;;12.70;68.38;102204.22;3059130;22;44635;-81
2022/11/02 07:20:05;;;;;;;;;7.75;5.50;;;;;12.71;68.36;102214.75;3058624;22;45219;-81
2022/11/02 07:21:15;;;;;;;;;7.25;5.25;;;;;12.71;68.12;102220.03;3059021;22;45140;-81
2022/11/02 07:22:25;;;;;;;;;7.75;7.75;;;;;12.70;68.25;102207.72;3059132;22;45194;-82
2022/11/02 07:23:36;;;;;;;;;4.75;3.75;;;;;12.69;68.38;102213.03;3058984;22;45225;-81
2022/11/02 07:24:46;;;;;;;;;4.00;4.00;;;;;12.70;68.43;102214.78;3058780;22;45274;-81
2022/11/02 07:25:57;;;;;;;;;5.25;5.25;;;;;12.70;67.97;102222.69;3058960;22;45218;-81
2022/11/02 07:27:07;;;;;;;;;7.75;5.00;;;;;12.70;68.23;102227.97;3043121;22;46923;-81
2022/11/02 07:28:18;;;;;;;;;6.25;5.50;;;;;12.69;68.11;102221.81;3047125;22;45198;-82
2022/11/02 07:29:28;;;;;;;;;7.50;4.75;;;;;12.69;68.48;102227.09;3042811;22;47180;-81
2022/11/02 07:30:38;;;;;;;;;6.50;4.00;;;;;12.68;68.56;102228.00;3048166;22;45277;-81
2022/11/02 07:31:48;;;;;;;;;6.75;5.25;;;;;12.71;68.71;102221.81;3043049;22;46896;-81
2022/11/02 07:32:59;;;;;;;;;5.00;4.00;;;;;12.73;68.70;102230.56;3048165;22;45260;-81
2022/11/02 07:34:10;;;;;;;;;7.25;3.25;;;;;12.73;68.59;102230.56;3059332;22;45392;-81
2022/11/02 07:35:21;;;;;;;;;10.75;8.00;;;;;12.73;68.68;102229.69;3059489;22;44652;-82
2022/11/02 07:36:31;;;;;;;;;9.00;7.25;;;;;12.75;68.73;102235.78;3059173;22;45151;-81
2022/11/02 07:37:41;;;;;;;;;9.00;5.25;;;;;12.74;68.68;102227.00;3043415;22;45101;-81
2022/11/02 07:38:52;;;;;;;;;7.25;5.00;;;;;12.78;68.74;102235.75;3048087;22;45290;-81
2022/11/02 07:40:05;;;;;;;;;11.25;6.50;;;;;12.76;68.77;102233.13;3059472;22;45229;-81
2022/11/02 07:41:15;;;;;;;;;5.00;3.00;;;;;12.78;68.52;102222.53;3059426;22;45591;-81
2022/11/02 07:42:26;;;;;;;;;10.25;7.75;;;;;12.83;68.48;102231.25;3060072;22;45153;-81
2022/11/02 07:43:36;;;;;;;;;6.50;3.75;;;;;12.79;68.77;102225.16;3059637;22;46205;-81
2022/11/02 07:44:46;;;;;;;;;5.00;4.00;;;;;12.83;68.51;102223.34;3059981;22;44687;-81
2022/11/02 07:45:57;;;;;;;;;7.50;7.25;;;;;12.85;68.87;102228.56;3058808;22;45380;-81
2022/11/02 07:47:07;;;;;;;;;7.00;3.25;;;;;12.86;68.71;102230.31;3060119;22;45191;-81
2022/11/02 07:48:17;;;;;;;;;7.50;5.25;;;;;12.87;68.71;102232.94;3059392;22;45306;-81
2022/11/02 07:49:28;;;;;;;;;8.75;6.00;;;;;12.86;68.53;102231.19;3059768;22;45252;-81
2022/11/02 07:50:38;;;;;;;;;8.50;7.00;;;;;12.88;68.76;102228.53;3043098;22;47919;-81
2022/11/02 07:51:48;;;;;;;;;8.00;4.25;;;;;12.89;68.65;102227.63;3048149;22;45147;-82
2022/11/02 07:52:59;;;;;;;;;6.50;4.75;;;;;12.90;68.76;102235.50;3059694;22;45346;-81
2022/11/02 07:54:09;;;;;;;;;6.75;5.00;;;;;12.90;68.57;102232.00;3058900;22;45092;-81
2022/11/02 07:55:22;;;;;;;;;8.75;6.50;;;;;12.91;68.74;102236.38;3059015;22;45201;-81
2022/11/02 07:56:33;;;;;;;;;9.50;5.75;;;;;12.89;68.82;102232.91;3042541;22;45232;-81
2022/11/02 07:58:00;;;;;;;;;9.25;6.00;;;;;12.93;68.90;102237.22;3032076;22;48317;-81
2022/11/02 07:59:11;;;;;;;;;8.25;7.75;;;;;12.93;68.97;102238.09;3035939;22;45180;-81
2022/11/02 08:00:23;;;;;;;;;4.75;4.50;;;;;12.97;68.96;102245.94;3048271;22;45493;-81
2022/11/02 08:01:34;;;;;;;;;7.50;7.50;;;;;12.99;69.21;102249.44;3059721;22;45152;-81
2022/11/02 08:02:44;;;;;;;;;8.00;5.25;;;;;13.00;69.00;102245.91;3059152;22;46646;-81
2022/11/02 08:03:55;;;;;;;;;5.50;5.50;;;;;13.00;69.04;102243.25;3059420;22;45201;-81
2022/11/02 08:05:06;;;;;;;;;6.75;3.00;;;;;13.03;68.81;102253.75;3043150;22;47252;-81
2022/11/02 08:06:16;;;;;;;;;7.50;7.50;;;;;13.05;69.20;102246.69;3042989;22;45260;-81
2022/11/02 08:07:26;;;;;;;;;6.00;4.25;;;;;13.07;69.18;102246.63;3047804;22;45286;-81
2022/11/02 08:08:37;;;;;;;;;8.25;4.50;;;;;13.10;68.88;102246.59;3059661;22;45200;-81
2022/11/02 08:09:47;;;;;;;;;7.75;4.00;;;;;13.11;68.89;102245.69;3059465;22;46190;-81
2022/11/02 08:11:04;;;;;;;;;7.75;3.75;;;;;13.12;69.37;102248.28;3059713;22;45247;-81
2022/11/02 08:12:14;;;;;;;;;6.00;5.25;;;;;13.15;69.08;102250.88;3059783;22;46373;-81
2022/11/02 08:13:25;;;;;;;;;6.25;5.25;;;;;13.20;69.00;102244.63;3059435;22;45234;-81
2022/11/02 08:14:35;;;;;;;;;6.50;4.00;;;;;13.19;68.89;102238.47;3059632;22;46051;-81
2022/11/02 08:15:50;;;;;;;;;11.75;6.25;;;;;13.20;68.89;102234.94;3059795;22;45173;-81
2022/11/02 08:17:00;;;;;;;;;6.00;6.00;;;;;13.22;69.15;102233.16;3059351;22;46516;-82
2022/11/02 08:18:29;;;;;;;;;12.00;6.25;;;;;13.24;68.72;102241.91;3059840;22;45259;-81
2022/11/02 08:19:39;;;;;;;;;12.25;4.00;;;;;13.26;69.67;102237.44;3059578;22;45331;-82
2022/11/02 08:20:50;;;;;;;;;9.25;7.50;;;;;13.32;69.11;102239.09;3059900;22;45375;-82
2022/11/02 08:22:00;;;;;;;;;6.00;4.25;;;;;13.35;69.34;102238.19;3059434;22;45373;-82
2022/11/02 08:23:11;;;;;;;;;8.00;5.25;;;;;13.40;69.12;102238.94;3059658;22;44747;-81
2022/11/02 08:24:21;;;;;;;;;8.75;6.75;;;;;13.41;68.63;102243.31;3059651;22;45407;-82
2022/11/02 08:25:32;;;;;;;;;7.25;3.75;;;;;13.44;68.89;102243.25;3042577;22;45134;-82
2022/11/02 08:26:43;;;;;;;;;4.75;4.75;;;;;13.47;69.12;102252.91;3048064;22;45616;-82
2022/11/02 08:27:58;;;;;;;;;5.00;4.00;;;;;13.53;69.28;102246.63;3043173;22;44627;-82
2022/11/02 08:29:08;;;;;;;;;5.25;4.50;;;;;13.57;68.90;102253.59;3048950;22;45373;-81
2022/11/02 08:30:19;;;;;;;;;5.25;4.00;;;;;13.58;69.00;102250.91;3059485;22;45234;-82
2022/11/02 08:31:29;;;;;;;;;6.50;5.50;;;;;13.62;68.78;102251.72;3058869;22;45441;-82
2022/11/02 08:32:39;;;;;;;;;8.50;4.50;;;;;13.63;68.65;102256.09;3059291;22;45203;-82
2022/11/02 08:33:50;;;;;;;;;6.25;4.50;;;;;13.65;68.79;102256.97;3042861;22;47360;-82
2022/11/02 08:35:00;;;;;;;;;4.75;4.00;;;;;13.68;68.72;102256.88;3048272;22;45206;-82
2022/11/02 08:36:11;;;;;;;;;4.00;4.00;;;;;13.69;68.61;102245.41;3058984;22;45371;-82
2022/11/02 08:37:21;;;;;;;;;4.50;3.00;;;;;13.73;68.38;102247.06;3059346;22;45171;-82
2022/11/02 08:38:32;;;;;;;;;7.00;6.75;;;;;13.73;68.39;102244.44;3058998;22;45326;-81
2022/11/02 08:39:42;;;;;;;;;4.25;4.00;;;;;13.77;68.71;102249.66;3059498;22;45131;-82
2022/11/02 08:40:54;;;;;;;;;11.25;4.25;;;;;13.83;68.65;102252.16;3059308;22;46098;-82
2022/11/02 08:42:04;;;;;;;;;4.75;4.00;;;;;13.88;68.42;102250.28;3058768;22;45172;-82
2022/11/02 08:43:15;;;;;;;;;5.75;5.00;;;;;13.91;68.13;102249.34;3059094;22;46645;-82
2022/11/02 08:44:25;;;;;;;;;6.00;5.00;;;;;13.91;68.11;102244.94;3059599;22;45212;-82
2022/11/02 08:45:37;;;;;;;;;5.00;4.00;;;;;13.94;68.13;102241.34;3059589;22;46218;-82
2022/11/02 08:46:48;;;;;;;;;8.50;5.00;;;;;13.95;68.35;102246.59;3042900;22;45273;-82
2022/11/02 08:47:58;;;;;;;;;9.00;6.25;;;;;14.00;67.99;102241.19;3047114;22;47079;-82
2022/11/02 08:49:09;;;;;;;;;4.00;4.00;;;;;14.02;68.31;102236.75;3058973;22;45376;-82
2022/11/02 08:50:19;;;;;;;;;7.75;4.00;;;;;14.07;68.33;102248.06;3059682;22;46255;-82
2022/11/02 08:51:30;;;;;;;;;3.75;3.75;;;;;14.12;68.18;102250.63;3059626;22;44640;-82
2022/11/02 08:52:41;;;;;;;;;4.75;3.50;;;;;14.14;67.82;102234.72;3059421;22;45430;-82
2022/11/02 08:53:51;;;;;;;;;4.00;4.00;;;;;14.18;67.74;102237.25;3059863;22;45234;-82
2022/11/02 08:55:01;;;;;;;;;7.25;5.00;;;;;14.23;67.90;102246.84;3058703;22;46360;-82
2022/11/02 08:56:12;;;;;;;;;6.75;6.00;;;;;14.27;67.84;102244.06;3059135;22;45158;-82
2022/11/02 08:57:22;;;;;;;;;7.00;3.25;;;;;14.28;67.56;102243.19;3059312;22;45113;-82
2022/11/02 08:58:32;;;;;;;;;6.00;5.00;;;;;14.31;67.68;102244.88;3043130;22;44598;-82
2022/11/02 08:59:43;;;;;;;;;9.50;4.75;;;;;14.35;67.19;102243.88;3047872;22;45212;-82
2022/11/02 09:00:53;;;;;;;;;9.50;4.00;;;;;14.38;67.38;102246.47;3059685;22;45064;-82
2022/11/02 09:02:04;;;;;;;;;7.25;5.00;;;;;14.39;67.31;102247.34;3042644;22;48158;-83
2022/11/02 09:03:15;;;;;;;;;6.75;4.25;;;;;14.42;67.22;102247.25;3048018;22;44629;-83
2022/11/02 09:04:25;;;;;;;;;8.25;5.00;;;;;14.43;66.73;102243.69;3059370;22;45296;-84
2022/11/02 09:05:38;;;;;;;;;6.25;4.25;;;;;14.50;67.05;102255.00;3059781;22;45096;-83
2022/11/02 09:06:48;;;;;;;;;5.25;4.00;;;;;14.53;67.23;102244.34;3058993;22;45486;-84
2022/11/02 09:08:04;;;;;;;;;6.25;6.00;;;;;14.57;66.85;102248.63;3059705;22;45285;-83
2022/11/02 09:09:14;;;;;;;;;5.50;4.25;;;;;14.60;66.89;102250.34;3042400;22;48270;-83
2022/11/02 09:10:26;;;;;;;;;5.25;3.25;;;;;14.65;66.32;102252.84;3047681;22;44692;-83
2022/11/02 09:11:37;;;;;;;;;5.75;4.00;;;;;14.67;66.79;102249.25;3058151;22;47211;-82
2022/11/02 09:12:47;;;;;;;;;4.50;4.50;;;;;14.70;66.41;102243.03;3059107;22;45257;-82
2022/11/02 09:13:58;;;;;;;;;7.00;3.00;;;;;14.71;66.51;102242.13;3059347;22;45276;-82
2022/11/02 09:15:08;;;;;;;;;7.00;4.25;;;;;14.75;66.48;102243.78;3059430;22;45309;-82
2022/11/02 09:16:19;;;;;;;;;4.50;4.00;;;;;14.75;66.19;102238.47;3059563;22;45352;-82
2022/11/02 09:17:29;;;;;;;;;8.00;4.75;;;;;14.74;66.20;102237.59;3059360;22;44733;-83
2022/11/02 09:18:39;;;;;;;;;14.25;6.00;;;;;14.79;66.52;102239.28;3059562;22;45205;-83
2022/11/02 09:19:50;;;;;;;;;8.50;5.25;;;;;14.80;66.03;102238.34;3058129;22;45218;-83
2022/11/02 09:21:01;;;;;;;;;8.00;6.00;;;;;14.82;66.23;102240.06;3058857;22;45300;-83
2022/11/02 09:22:12;;;;;;;;;8.50;5.00;;;;;14.81;66.14;102237.47;3058968;22;45153;-83
2022/11/02 09:23:23;;;;;;;;;8.00;5.25;;;;;14.83;66.04;102228.56;3059542;22;45350;-82
2022/11/02 09:24:33;;;;;;;;;4.00;3.75;;;;;14.84;66.30;102232.09;3042259;22;45188;-82
2022/11/02 09:25:44;;;;;;;;;10.00;4.00;;;;;14.85;65.94;102234.72;3030876;22;46451;-81
2022/11/02 09:26:54;;;;;;;;;4.50;4.25;;;;;14.87;66.08;102234.66;3047592;22;44573;-82
2022/11/02 09:28:05;;;;;;;;;4.00;4.00;;;;;14.88;66.12;102227.59;3059137;22;45560;-82
2022/11/02 09:29:15;;;;;;;;;7.50;4.50;;;;;14.90;65.73;102229.28;3059648;22;45073;-82
2022/11/02 09:30:27;;;;;;;;;8.75;4.00;;;;;14.92;65.89;102227.47;3042333;22;48073;-82
2022/11/02 09:31:37;;;;;;;;;4.25;2.25;;;;;14.95;65.89;102223.88;3032224;22;45316;-82
2022/11/02 09:32:56;;;;;;;;;4.75;1.75;;;;;15.00;65.72;102229.03;3047047;22;45333;-81
2022/11/02 09:34:06;;;;;;;;;9.00;5.00;;;;;15.04;65.60;102228.91;3059149;22;45258;-82
2022/11/02 09:35:16;;;;;;;;;6.50;5.75;;;;;15.10;65.37;102232.28;3041727;22;46957;-81
2022/11/02 09:36:27;;;;;;;;;6.50;4.00;;;;;15.10;65.59;102225.22;3047549;22;45246;-81
2022/11/02 09:37:37;;;;;;;;;7.75;4.50;;;;;15.12;65.70;102233.97;3059400;22;46250;-81
2022/11/02 09:38:48;;;;;;;;;8.75;5.50;;;;;15.14;65.64;102232.16;3059406;22;45278;-81
2022/11/02 09:39:59;;;;;;;;;6.00;5.50;;;;;15.17;65.33;102233.84;3058979;22;46293;-81
2022/11/02 09:41:35;;;;;;;;;6.25;5.00;;;;;15.20;65.18;102228.47;3058613;22;45305;-81
2022/11/02 09:43:07;;;;;;;;;7.50;5.50;;;;;15.21;65.08;102226.69;3012672;22;47220;-81
2022/11/02 09:44:46;;;;;;;;;8.50;6.00;;;;;15.21;65.25;102224.06;3059022;22;45389;-82
2022/11/02 09:46:20;;;;;;;;;7.25;5.00;;;;;15.21;65.14;102224.91;3059044;22;45308;-82
2022/11/02 09:47:39;;;;;;;;;6.00;3.00;;;;;15.22;64.80;102226.66;3059633;22;45301;-81
2022/11/02 09:48:55;;;;;;;;;6.75;4.50;;;;;15.24;65.11;102221.28;3040648;22;47296;-82
2022/11/02 09:50:13;;;;;;;;;8.25;6.00;;;;;15.27;65.39;102226.50;3049243;22;45224;-81
2022/11/02 09:51:42;;;;;;;;;5.25;3.25;;;;;15.29;65.10;102220.25;3058844;22;46308;-81
2022/11/02 09:52:58;;;;;;;;;5.50;4.75;;;;;15.34;65.26;102221.88;3059213;22;44596;-81
2022/11/02 09:54:29;;;;;;;;;7.25;4.00;;;;;15.36;64.95;102226.22;3042000;22;48189;-81
2022/11/02 09:55:45;;;;;;;;;4.25;3.75;;;;;15.38;64.76;102229.69;3051522;22;45290;-81
2022/11/02 09:57:00;;;;;;;;;7.25;5.00;;;;;15.41;64.73;102226.09;3059465;22;45612;-81
2022/11/02 09:58:19;;;;;;;;;7.25;4.25;;;;;15.43;64.51;102224.28;3042970;22;45294;-81
2022/11/02 09:59:30;;;;;;;;;8.50;5.00;;;;;15.45;64.75;102219.81;3049722;22;45428;-81
2022/11/02 10:00:44;;;;;;;;;8.00;4.00;;;;;15.46;64.78;102223.34;3058688;22;45271;-85
2022/11/02 10:02:22;;;;;;;;;4.50;4.00;;;;;15.49;64.53;102224.09;3042417;22;47071;-82
2022/11/02 10:03:44;;;;;;;;;8.00;5.25;;;;;15.52;64.56;102228.44;3053116;22;45208;-81
2022/11/02 10:05:13;;;;;;;;;8.25;5.00;;;;;15.52;64.63;102229.31;3058114;22;47071;-81
2022/11/02 10:06:25;;;;;;;;;4.00;4.00;;;;;15.56;64.45;102227.41;3059624;22;45131;-81
2022/11/02 10:08:04;;;;;;;;;5.25;3.75;;;;;15.59;64.19;102224.69;3042833;22;46947;-81
2022/11/02 10:09:42;;;;;;;;;4.25;3.00;;;;;15.59;64.00;102224.69;3053287;22;45201;-81
2022/11/02 10:11:00;;;;;;;;;4.50;3.00;;;;;15.64;64.18;102222.75;3058707;22;45667;-81
2022/11/02 10:12:14;;;;;;;;;6.75;5.00;;;;;15.65;64.17;102223.63;3042326;22;44688;-81
2022/11/02 10:13:45;;;;;;;;;5.00;4.00;;;;;15.67;63.74;102220.94;3043926;22;46506;-81
2022/11/02 10:15:15;;;;;;;;;4.00;2.25;;;;;15.67;64.10;102219.16;3053621;22;45185;-81
2022/11/02 10:16:38;;;;;;;;;4.00;3.25;;;;;15.69;63.65;102227.91;3052890;22;45665;-81
2022/11/02 10:17:55;;;;;;;;;3.00;3.00;;;;;15.71;63.97;102228.72;3037632;22;45431;-82
2022/11/02 10:19:14;;;;;;;;;4.50;4.50;;;;;15.71;63.97;102219.91;3032607;22;47409;-82
2022/11/02 10:20:27;;;;;;;;;4.50;3.00;;;;;15.71;63.76;102217.25;3049594;22;45234;-82
2022/11/02 10:21:41;;;;;;;;;3.50;3.00;;;;;15.73;63.67;102218.06;3041526;22;47191;-82
2022/11/02 10:22:56;;;;;;;;;7.50;3.00;;;;;15.74;64.27;102228.66;3047767;22;45203;-81
2022/11/02 10:24:29;;;;;;;;;5.75;3.00;;;;;15.73;63.83;102221.59;3057610;22;46279;-82
2022/11/02 10:25:40;;;;;;;;;7.25;4.00;;;;;15.69;63.55;102219.97;3058416;22;45261;-82
2022/11/02 10:26:57;;;;;;;;;3.00;3.00;;;;;15.68;63.63;102228.81;3058576;22;45678;-82
2022/11/02 10:28:14;;;;;;;;;4.75;3.00;;;;;15.64;63.49;102224.53;3059233;22;45271;-82
2022/11/02 10:30:12;;;;;;;;;4.25;2.50;;;;;15.61;63.84;102222.84;3059069;22;45363;-82
2022/11/02 10:31:33;;;;;;;;;4.25;4.00;;;;;15.60;63.75;102220.25;3042937;22;45226;-82
2022/11/02 10:32:54;;;;;;;;;6.25;3.00;;;;;15.58;63.36;102227.41;3049974;22;46320;-82
2022/11/02 10:34:20;;;;;;;;;3.25;3.25;;;;;15.57;63.71;102230.94;3059649;22;45190;-82
2022/11/02 10:35:38;;;;;;;;;6.75;2.75;;;;;15.55;63.43;102222.19;3059316;22;46264;-82
2022/11/02 10:37:21;;;;;;;;;5.25;3.50;;;;;15.48;63.66;102211.75;3059545;22;45222;-82
2022/11/02 10:38:50;;;;;;;;;3.00;3.00;;;;;15.46;63.80;102226.81;3042638;22;47835;-82
2022/11/02 10:40:16;;;;;;;;;3.75;2.75;;;;;15.47;63.87;102217.09;3042059;22;45223;-82
2022/11/02 10:41:40;;;;;;;;;5.25;3.25;;;;;15.44;63.67;102223.34;3051240;22;46523;-81
2022/11/02 10:43:24;;;;;;;;;5.25;3.00;;;;;15.45;63.97;102221.59;3059455;22;45237;-81
2022/11/02 10:45:13;;;;;;;;;5.75;3.25;;;;;15.45;63.74;102221.59;3059328;22;46284;-81
2022/11/02 10:46:26;;;;;;;;;8.00;3.25;;;;;15.44;64.05;102220.72;3054445;22;45412;-81
2022/11/02 10:47:58;;;;;;;;;6.25;4.75;;;;;15.45;63.94;102224.22;3059247;22;46762;-81
2022/11/02 10:49:37;;;;;;;;;5.50;5.50;;;;;15.42;64.02;102211.94;3059577;22;45279;-82
2022/11/02 10:50:59;;;;;;;;;7.75;5.00;;;;;15.45;64.26;102219.81;3059255;22;45242;-82
2022/11/02 10:52:14;;;;;;;;;13.25;5.75;;;;;15.46;64.29;102213.59;3059642;22;45257;-82
2022/11/02 10:53:24;;;;;;;;;4.00;4.00;;;;;15.48;64.07;102218.84;3059295;22;45231;-81
2022/11/02 10:54:35;;;;;;;;;6.75;5.50;;;;;15.51;64.02;102222.25;3059109;22;45062;-82
2022/11/02 10:56:06;;;;;;;;;3.75;3.25;;;;;15.54;63.72;102229.25;3058407;22;46250;-82
2022/11/02 10:57:24;;;;;;;;;7.75;5.00;;;;;15.55;63.62;102217.75;3059578;22;45261;-81
2022/11/02 10:58:38;;;;;;;;;7.50;4.75;;;;;15.57;63.74;102221.22;3058701;22;45242;-81
2022/11/02 11:00:26;;;;;;;;;5.25;4.00;;;;;15.58;63.62;102212.34;3042473;22;45282;-82
2022/11/02 11:01:36;;;;;;;;;10.50;6.00;;;;;15.58;63.82;102207.03;3039733;22;46544;-82
2022/11/02 11:03:08;;;;;;;;;5.75;4.25;;;;;15.61;63.81;102206.94;3048149;22;44750;-82
2022/11/02 11:04:27;;;;;;;;;5.25;3.50;;;;;15.63;63.69;102205.13;3059957;22;46251;-81
2022/11/02 11:05:49;;;;;;;;;3.50;3.00;;;;;15.65;63.75;102213.03;3059815;22;45298;-82
2022/11/02 11:07:26;;;;;;;;;8.00;5.00;;;;;15.67;63.74;102207.69;3059935;22;46014;-81
2022/11/02 11:08:43;;;;;;;;;8.00;4.75;;;;;15.67;63.32;102205.03;3055256;22;45207;-82
2022/11/02 11:09:56;;;;;;;;;6.00;5.00;;;;;15.67;63.16;102208.56;3059116;22;46580;-81
2022/11/02 11:11:26;;;;;;;;;9.50;5.25;;;;;15.69;63.15;102212.00;3043617;22;45088;-82
2022/11/02 11:12:39;;;;;;;;;4.75;4.00;;;;;15.70;63.30;102204.94;3042823;22;47880;-82
2022/11/02 11:14:16;;;;;;;;;6.00;4.75;;;;;15.74;63.57;102201.28;3033457;22;45232;-81
2022/11/02 11:15:33;;;;;;;;;7.50;4.50;;;;;15.75;64.00;102201.22;3054178;22;45371;-82
2022/11/02 11:16:47;;;;;;;;;7.25;5.25;;;;;15.79;62.92;102201.13;3043397;22;45202;-82
2022/11/02 11:17:57;;;;;;;;;3.50;2.75;;;;;15.82;63.49;102201.03;3048788;22;45397;-82
2022/11/02 11:19:29;;;;;;;;;5.50;4.50;;;;;15.85;63.37;102199.13;3043429;22;45289;-82
2022/11/02 11:20:41;;;;;;;;;7.75;4.25;;;;;15.89;63.11;102196.38;3053030;22;46267;-82
2022/11/02 11:21:52;;;;;;;;;5.25;5.25;;;;;15.90;62.81;102196.31;3059666;22;45100;-81
2022/11/02 11:23:20;;;;;;;;;9.00;5.00;;;;;15.92;63.00;102193.66;3059490;22;46105;-82
2022/11/02 11:24:33;;;;;;;;;4.50;3.25;;;;;15.93;62.69;102196.25;3042757;22;45207;-81
2022/11/02 11:26:04;;;;;;;;;6.00;2.50;;;;;15.95;63.06;102197.06;3048778;22;45353;-82
2022/11/02 11:27:21;;;;;;;;;4.25;4.00;;;;;15.94;62.43;102192.69;3059663;22;44540;-81
2022/11/02 11:28:41;;;;;;;;;6.00;4.00;;;;;15.96;62.78;102189.97;3059559;22;46336;-81
2022/11/02 11:29:56;;;;;;;;;6.25;4.00;;;;;15.94;62.54;102191.81;3058853;22;44533;-81
2022/11/02 11:31:15;;;;;;;;;3.50;3.50;;;;;15.95;62.63;102189.09;3060108;22;45853;-82
2022/11/02 11:32:27;;;;;;;;;8.50;4.75;;;;;15.97;62.64;102175.81;3058823;22;45166;-81
2022/11/02 11:33:47;;;;;;;;;4.75;3.00;;;;;15.98;62.82;102185.47;3059493;22;45336;-82
2022/11/02 11:35:02;;;;;;;;;5.25;4.25;;;;;15.99;62.37;102181.91;3059433;22;45222;-82
2022/11/02 11:36:33;;;;;;;;;6.00;4.00;;;;;15.97;62.31;102179.34;3058194;22;45355;-82
2022/11/02 11:37:50;;;;;;;;;4.50;4.00;;;;;15.98;61.96;102182.81;3056984;22;45206;-81
2022/11/02 11:39:06;;;;;;;;;4.00;2.00;;;;;15.97;62.42;102189.06;3059087;22;46501;-81
2022/11/02 11:40:19;;;;;;;;;5.75;3.00;;;;;15.96;62.42;102184.66;3054753;22;45240;-81
2022/11/02 11:41:32;;;;;;;;;7.75;4.00;;;;;15.95;62.69;102183.78;3040948;22;47315;-82
2022/11/02 11:42:42;;;;;;;;;5.00;3.00;;;;;15.94;62.74;102184.72;3046783;22;44620;-82